sensor_id;sensor_type;location;lat;lon;timestamp;P1;durP1;ratioP1;P2;durP2;ratioP2
21675;SDS011;10999;51.332;9.458;2023-08-17T00:01:35;9.90;;;6.07;;
21675;SDS011;10999;51.332;9.458;2023-08-17T00:04:02;13.90;;;6.72;;
21675;SDS011;10999;51.332;9.458;2023-08-17T00:06:28;12.40;;;6.13;;
21675;SDS011;10999;51.332;9.458;2023-08-17T00:08:55;12.02;;;6.30;;
21675;SDS011;10999;51.332;9.458;2023-08-17T00:11:22;9.88;;;5.57;;
21675;SDS011;10999;51.332;9.458;2023-08-17T00:13:49;11.20;;;5.93;;
21675;SDS011;10999;51.332;9.458;2023-08-17T00:16:16;11.20;;;6.03;;
21675;SDS011;10999;51.332;9.458;2023-08-17T00:18:43;10.25;;;6.45;;
21675;SDS011;10999;51.332;9.458;2023-08-17T00:21:10;10.18;;;5.72;;
21675;SDS011;10999;51.332;9.458;2023-08-17T00:23:37;10.82;;;6.13;;
21675;SDS011;10999;51.332;9.458;2023-08-17T00:26:04;10.73;;;5.75;;
21675;SDS011;10999;51.332;9.458;2023-08-17T00:28:31;9.93;;;5.38;;
21675;SDS011;10999;51.332;9.458;2023-08-17T00:30:59;10.85;;;5.93;;
21675;SDS011;10999;51.332;9.458;2023-08-17T00:33:26;11.30;;;5.50;;
21675;SDS011;10999;51.332;9.458;2023-08-17T00:35:52;12.25;;;5.78;;
21675;SDS011;10999;51.332;9.458;2023-08-17T00:38:19;12.25;;;6.85;;
21675;SDS011;10999;51.332;9.458;2023-08-17T00:40:46;13.43;;;6.25;;
21675;SDS011;10999;51.332;9.458;2023-08-17T00:43:13;12.35;;;6.85;;
21675;SDS011;10999;51.332;9.458;2023-08-17T00:45:40;11.48;;;6.20;;
21675;SDS011;10999;51.332;9.458;2023-08-17T00:48:07;11.65;;;6.75;;
21675;SDS011;10999;51.332;9.458;2023-08-17T00:50:35;10.15;;;5.82;;
21675;SDS011;10999;51.332;9.458;2023-08-17T00:53:03;9.27;;;5.10;;
21675;SDS011;10999;51.332;9.458;2023-08-17T00:55:30;8.75;;;4.35;;
21675;SDS011;10999;51.332;9.458;2023-08-17T00:57:59;8.23;;;3.40;;
21675;SDS011;10999;51.332;9.458;2023-08-17T01:00:26;7.63;;;3.38;;
21675;SDS011;10999;51.332;9.458;2023-08-17T01:02:54;7.05;;;2.83;;
21675;SDS011;10999;51.332;9.458;2023-08-17T01:05:22;6.55;;;2.40;;
21675;SDS011;10999;51.332;9.458;2023-08-17T01:07:49;5.20;;;2.08;;
21675;SDS011;10999;51.332;9.458;2023-08-17T01:10:16;5.47;;;1.92;;
21675;SDS011;10999;51.332;9.458;2023-08-17T01:12:47;4.53;;;1.55;;
21675;SDS011;10999;51.332;9.458;2023-08-17T01:18:04;4.68;;;1.63;;
21675;SDS011;10999;51.332;9.458;2023-08-17T01:20:43;3.33;;;1.40;;
21675;SDS011;10999;51.332;9.458;2023-08-17T01:23:12;6.35;;;1.70;;
21675;SDS011;10999;51.332;9.458;2023-08-17T01:25:39;4.97;;;1.90;;
21675;SDS011;10999;51.332;9.458;2023-08-17T01:28:06;5.75;;;1.73;;
21675;SDS011;10999;51.332;9.458;2023-08-17T01:38:34;4.18;;;1.40;;
21675;SDS011;10999;51.332;9.458;2023-08-17T01:41:03;5.38;;;1.95;;
21675;SDS011;10999;51.332;9.458;2023-08-17T01:43:31;4.03;;;1.60;;
21675;SDS011;10999;51.332;9.458;2023-08-17T01:45:58;4.43;;;1.73;;
21675;SDS011;10999;51.332;9.458;2023-08-17T01:48:26;6.45;;;1.80;;
21675;SDS011;10999;51.332;9.458;2023-08-17T01:50:53;5.03;;;1.55;;
21675;SDS011;10999;51.332;9.458;2023-08-17T01:53:22;3.97;;;1.80;;
21675;SDS011;10999;51.332;9.458;2023-08-17T01:55:49;4.55;;;1.65;;
21675;SDS011;10999;51.332;9.458;2023-08-17T01:58:19;3.65;;;1.55;;
21675;SDS011;10999;51.332;9.458;2023-08-17T02:00:46;5.95;;;2.00;;
21675;SDS011;10999;51.332;9.458;2023-08-17T02:03:12;9.13;;;2.20;;
21675;SDS011;10999;51.332;9.458;2023-08-17T02:05:43;4.53;;;1.70;;
21675;SDS011;10999;51.332;9.458;2023-08-17T02:08:11;5.78;;;1.92;;
21675;SDS011;10999;51.332;9.458;2023-08-17T02:10:38;4.38;;;1.98;;
21675;SDS011;10999;51.332;9.458;2023-08-17T02:13:04;5.88;;;2.10;;
21675;SDS011;10999;51.332;9.458;2023-08-17T02:15:43;5.45;;;2.40;;
21675;SDS011;10999;51.332;9.458;2023-08-17T02:18:10;5.35;;;2.15;;
21675;SDS011;10999;51.332;9.458;2023-08-17T02:20:37;4.50;;;1.90;;
21675;SDS011;10999;51.332;9.458;2023-08-17T02:23:03;6.18;;;2.50;;
21675;SDS011;10999;51.332;9.458;2023-08-17T02:25:30;6.28;;;2.53;;
21675;SDS011;10999;51.332;9.458;2023-08-17T02:28:02;4.53;;;1.80;;
21675;SDS011;10999;51.332;9.458;2023-08-17T02:30:30;5.68;;;1.80;;
21675;SDS011;10999;51.332;9.458;2023-08-17T02:32:56;5.47;;;1.83;;
21675;SDS011;10999;51.332;9.458;2023-08-17T02:35:24;8.25;;;2.55;;
21675;SDS011;10999;51.332;9.458;2023-08-17T02:37:51;5.45;;;1.70;;
21675;SDS011;10999;51.332;9.458;2023-08-17T02:40:18;5.90;;;2.10;;
21675;SDS011;10999;51.332;9.458;2023-08-17T02:42:45;4.70;;;1.63;;
21675;SDS011;10999;51.332;9.458;2023-08-17T02:45:11;5.22;;;2.22;;
21675;SDS011;10999;51.332;9.458;2023-08-17T02:47:38;6.28;;;2.20;;
21675;SDS011;10999;51.332;9.458;2023-08-17T02:50:05;5.55;;;1.77;;
21675;SDS011;10999;51.332;9.458;2023-08-17T02:52:32;5.70;;;1.70;;
21675;SDS011;10999;51.332;9.458;2023-08-17T02:54:59;6.82;;;2.22;;
21675;SDS011;10999;51.332;9.458;2023-08-17T02:57:26;5.03;;;2.08;;
21675;SDS011;10999;51.332;9.458;2023-08-17T02:59:53;7.05;;;1.92;;
21675;SDS011;10999;51.332;9.458;2023-08-17T03:02:20;4.13;;;1.55;;
21675;SDS011;10999;51.332;9.458;2023-08-17T03:04:47;5.10;;;1.67;;
21675;SDS011;10999;51.332;9.458;2023-08-17T03:07:13;4.32;;;1.98;;
21675;SDS011;10999;51.332;9.458;2023-08-17T03:09:40;6.25;;;1.70;;
21675;SDS011;10999;51.332;9.458;2023-08-17T03:12:07;3.88;;;1.40;;
21675;SDS011;10999;51.332;9.458;2023-08-17T03:14:33;5.25;;;1.70;;
21675;SDS011;10999;51.332;9.458;2023-08-17T03:17:00;6.30;;;2.20;;
21675;SDS011;10999;51.332;9.458;2023-08-17T03:19:27;5.40;;;2.20;;
21675;SDS011;10999;51.332;9.458;2023-08-17T03:21:53;5.22;;;1.58;;
21675;SDS011;10999;51.332;9.458;2023-08-17T03:24:20;5.35;;;1.40;;
21675;SDS011;10999;51.332;9.458;2023-08-17T03:26:47;5.78;;;1.77;;
21675;SDS011;10999;51.332;9.458;2023-08-17T03:29:14;4.72;;;1.65;;
21675;SDS011;10999;51.332;9.458;2023-08-17T03:31:40;4.38;;;1.48;;
21675;SDS011;10999;51.332;9.458;2023-08-17T03:34:07;4.38;;;1.65;;
21675;SDS011;10999;51.332;9.458;2023-08-17T03:36:34;4.15;;;1.30;;
21675;SDS011;10999;51.332;9.458;2023-08-17T03:39:01;5.35;;;2.03;;
21675;SDS011;10999;51.332;9.458;2023-08-17T03:41:27;5.88;;;2.42;;
21675;SDS011;10999;51.332;9.458;2023-08-17T03:43:54;3.90;;;1.60;;
21675;SDS011;10999;51.332;9.458;2023-08-17T03:46:21;4.03;;;1.63;;
21675;SDS011;10999;51.332;9.458;2023-08-17T03:48:47;4.68;;;1.48;;
21675;SDS011;10999;51.332;9.458;2023-08-17T03:51:14;5.68;;;1.95;;
21675;SDS011;10999;51.332;9.458;2023-08-17T03:53:41;5.72;;;1.60;;
21675;SDS011;10999;51.332;9.458;2023-08-17T03:56:08;5.15;;;1.75;;
21675;SDS011;10999;51.332;9.458;2023-08-17T03:58:34;5.47;;;1.98;;
21675;SDS011;10999;51.332;9.458;2023-08-17T04:01:01;5.03;;;1.92;;
21675;SDS011;10999;51.332;9.458;2023-08-17T04:03:29;4.90;;;1.60;;
21675;SDS011;10999;51.332;9.458;2023-08-17T04:05:56;5.45;;;1.77;;
21675;SDS011;10999;51.332;9.458;2023-08-17T04:08:23;5.38;;;2.00;;
21675;SDS011;10999;51.332;9.458;2023-08-17T04:10:49;6.28;;;1.80;;
21675;SDS011;10999;51.332;9.458;2023-08-17T04:13:16;6.82;;;2.10;;
21675;SDS011;10999;51.332;9.458;2023-08-17T04:15:43;5.30;;;1.77;;
21675;SDS011;10999;51.332;9.458;2023-08-17T04:18:09;5.35;;;1.83;;
21675;SDS011;10999;51.332;9.458;2023-08-17T04:20:36;5.95;;;2.00;;
21675;SDS011;10999;51.332;9.458;2023-08-17T04:23:03;4.63;;;2.03;;
21675;SDS011;10999;51.332;9.458;2023-08-17T04:25:30;4.07;;;1.65;;
21675;SDS011;10999;51.332;9.458;2023-08-17T04:27:56;8.95;;;2.00;;
21675;SDS011;10999;51.332;9.458;2023-08-17T04:30:23;7.13;;;2.50;;
21675;SDS011;10999;51.332;9.458;2023-08-17T04:32:50;7.00;;;3.35;;
21675;SDS011;10999;51.332;9.458;2023-08-17T04:35:19;8.90;;;4.03;;
21675;SDS011;10999;51.332;9.458;2023-08-17T04:37:46;11.77;;;6.25;;
21675;SDS011;10999;51.332;9.458;2023-08-17T04:40:13;10.10;;;5.95;;
21675;SDS011;10999;51.332;9.458;2023-08-17T04:42:41;10.93;;;6.25;;
21675;SDS011;10999;51.332;9.458;2023-08-17T04:45:08;11.75;;;6.75;;
21675;SDS011;10999;51.332;9.458;2023-08-17T04:47:35;13.82;;;6.90;;
21675;SDS011;10999;51.332;9.458;2023-08-17T04:50:02;11.98;;;7.20;;
21675;SDS011;10999;51.332;9.458;2023-08-17T04:52:29;13.13;;;7.15;;
21675;SDS011;10999;51.332;9.458;2023-08-17T04:54:55;12.45;;;7.25;;
21675;SDS011;10999;51.332;9.458;2023-08-17T04:57:22;13.43;;;8.57;;
21675;SDS011;10999;51.332;9.458;2023-08-17T04:59:50;11.35;;;7.15;;
21675;SDS011;10999;51.332;9.458;2023-08-17T05:02:17;13.70;;;8.57;;
21675;SDS011;10999;51.332;9.458;2023-08-17T05:04:45;14.63;;;8.18;;
21675;SDS011;10999;51.332;9.458;2023-08-17T05:07:12;16.05;;;8.52;;
21675;SDS011;10999;51.332;9.458;2023-08-17T05:09:39;17.30;;;9.90;;
21675;SDS011;10999;51.332;9.458;2023-08-17T05:12:06;13.68;;;8.30;;
21675;SDS011;10999;51.332;9.458;2023-08-17T05:14:34;17.85;;;10.32;;
21675;SDS011;10999;51.332;9.458;2023-08-17T05:17:01;17.00;;;8.98;;
21675;SDS011;10999;51.332;9.458;2023-08-17T05:19:28;17.95;;;10.50;;
21675;SDS011;10999;51.332;9.458;2023-08-17T05:21:55;19.42;;;10.15;;
21675;SDS011;10999;51.332;9.458;2023-08-17T05:24:22;21.23;;;10.90;;
21675;SDS011;10999;51.332;9.458;2023-08-17T05:26:48;19.48;;;11.55;;
21675;SDS011;10999;51.332;9.458;2023-08-17T05:29:15;17.35;;;9.90;;
21675;SDS011;10999;51.332;9.458;2023-08-17T05:31:42;21.92;;;12.90;;
21675;SDS011;10999;51.332;9.458;2023-08-17T05:34:08;18.23;;;11.18;;
21675;SDS011;10999;51.332;9.458;2023-08-17T05:36:35;21.90;;;12.10;;
21675;SDS011;10999;51.332;9.458;2023-08-17T05:39:02;17.80;;;10.48;;
21675;SDS011;10999;51.332;9.458;2023-08-17T05:41:29;20.27;;;10.65;;
21675;SDS011;10999;51.332;9.458;2023-08-17T05:43:56;21.23;;;11.68;;
21675;SDS011;10999;51.332;9.458;2023-08-17T05:46:23;21.23;;;12.43;;
21675;SDS011;10999;51.332;9.458;2023-08-17T05:48:50;22.63;;;11.73;;
21675;SDS011;10999;51.332;9.458;2023-08-17T05:51:17;24.40;;;13.18;;
21675;SDS011;10999;51.332;9.458;2023-08-17T05:53:43;24.35;;;12.45;;
21675;SDS011;10999;51.332;9.458;2023-08-17T05:56:10;22.40;;;11.65;;
21675;SDS011;10999;51.332;9.458;2023-08-17T05:58:37;22.98;;;11.70;;
21675;SDS011;10999;51.332;9.458;2023-08-17T06:01:07;24.20;;;11.98;;
21675;SDS011;10999;51.332;9.458;2023-08-17T06:03:35;21.15;;;12.35;;
21675;SDS011;10999;51.332;9.458;2023-08-17T06:06:03;26.08;;;12.68;;
21675;SDS011;10999;51.332;9.458;2023-08-17T06:08:31;21.45;;;12.32;;
21675;SDS011;10999;51.332;9.458;2023-08-17T06:10:58;20.30;;;10.75;;
21675;SDS011;10999;51.332;9.458;2023-08-17T06:13:25;21.35;;;11.50;;
21675;SDS011;10999;51.332;9.458;2023-08-17T06:15:52;19.60;;;11.18;;
21675;SDS011;10999;51.332;9.458;2023-08-17T06:18:19;25.50;;;14.48;;
21675;SDS011;10999;51.332;9.458;2023-08-17T06:20:46;21.90;;;12.93;;
21675;SDS011;10999;51.332;9.458;2023-08-17T06:23:14;20.70;;;10.57;;
21675;SDS011;10999;51.332;9.458;2023-08-17T06:25:41;20.88;;;11.07;;
21675;SDS011;10999;51.332;9.458;2023-08-17T06:28:07;24.85;;;12.15;;
21675;SDS011;10999;51.332;9.458;2023-08-17T06:30:34;19.95;;;11.07;;
21675;SDS011;10999;51.332;9.458;2023-08-17T06:33:01;21.60;;;11.93;;
21675;SDS011;10999;51.332;9.458;2023-08-17T06:35:28;26.40;;;13.80;;
21675;SDS011;10999;51.332;9.458;2023-08-17T06:37:55;23.77;;;13.32;;
21675;SDS011;10999;51.332;9.458;2023-08-17T06:40:24;22.80;;;11.70;;
21675;SDS011;10999;51.332;9.458;2023-08-17T06:42:51;21.98;;;12.15;;
21675;SDS011;10999;51.332;9.458;2023-08-17T06:45:20;22.17;;;11.95;;
21675;SDS011;10999;51.332;9.458;2023-08-17T06:47:47;24.75;;;12.13;;
21675;SDS011;10999;51.332;9.458;2023-08-17T06:50:15;23.73;;;12.18;;
21675;SDS011;10999;51.332;9.458;2023-08-17T06:52:41;22.58;;;11.57;;
21675;SDS011;10999;51.332;9.458;2023-08-17T06:55:08;25.27;;;12.43;;
21675;SDS011;10999;51.332;9.458;2023-08-17T06:57:36;24.27;;;11.80;;
21675;SDS011;10999;51.332;9.458;2023-08-17T07:00:03;20.42;;;11.10;;
21675;SDS011;10999;51.332;9.458;2023-08-17T07:02:34;22.30;;;11.52;;
21675;SDS011;10999;51.332;9.458;2023-08-17T07:05:16;24.77;;;11.63;;
21675;SDS011;10999;51.332;9.458;2023-08-17T07:07:44;21.42;;;12.48;;
21675;SDS011;10999;51.332;9.458;2023-08-17T07:10:11;25.73;;;12.65;;
21675;SDS011;10999;51.332;9.458;2023-08-17T07:12:38;15.73;;;8.68;;
21675;SDS011;10999;51.332;9.458;2023-08-17T07:15:06;20.85;;;10.05;;
21675;SDS011;10999;51.332;9.458;2023-08-17T07:17:33;21.48;;;11.68;;
21675;SDS011;10999;51.332;9.458;2023-08-17T07:20:03;19.10;;;9.50;;
21675;SDS011;10999;51.332;9.458;2023-08-17T07:22:42;19.50;;;10.85;;
21675;SDS011;10999;51.332;9.458;2023-08-17T07:25:09;19.25;;;9.93;;
21675;SDS011;10999;51.332;9.458;2023-08-17T07:27:36;19.33;;;10.15;;
21675;SDS011;10999;51.332;9.458;2023-08-17T07:30:03;22.27;;;10.38;;
21675;SDS011;10999;51.332;9.458;2023-08-17T07:32:30;19.20;;;10.48;;
21675;SDS011;10999;51.332;9.458;2023-08-17T07:34:57;18.33;;;9.75;;
21675;SDS011;10999;51.332;9.458;2023-08-17T07:37:24;17.40;;;8.80;;
21675;SDS011;10999;51.332;9.458;2023-08-17T07:39:58;17.20;;;9.60;;
21675;SDS011;10999;51.332;9.458;2023-08-17T07:42:25;17.45;;;9.88;;
21675;SDS011;10999;51.332;9.458;2023-08-17T07:44:53;20.00;;;10.23;;
21675;SDS011;10999;51.332;9.458;2023-08-17T07:47:19;17.30;;;8.98;;
21675;SDS011;10999;51.332;9.458;2023-08-17T07:49:46;14.05;;;7.18;;
21675;SDS011;10999;51.332;9.458;2023-08-17T07:52:15;12.75;;;7.43;;
21675;SDS011;10999;51.332;9.458;2023-08-17T07:54:42;14.07;;;7.97;;
21675;SDS011;10999;51.332;9.458;2023-08-17T07:57:08;14.88;;;7.47;;
21675;SDS011;10999;51.332;9.458;2023-08-17T07:59:35;14.05;;;7.15;;
21675;SDS011;10999;51.332;9.458;2023-08-17T08:02:02;14.75;;;7.75;;
21675;SDS011;10999;51.332;9.458;2023-08-17T08:04:28;13.95;;;7.68;;
21675;SDS011;10999;51.332;9.458;2023-08-17T08:06:55;13.73;;;7.20;;
21675;SDS011;10999;51.332;9.458;2023-08-17T08:09:22;10.95;;;5.85;;
21675;SDS011;10999;51.332;9.458;2023-08-17T08:11:49;10.57;;;5.97;;
21675;SDS011;10999;51.332;9.458;2023-08-17T08:14:15;12.70;;;7.28;;
21675;SDS011;10999;51.332;9.458;2023-08-17T08:16:43;14.38;;;6.90;;
21675;SDS011;10999;51.332;9.458;2023-08-17T08:19:09;14.75;;;7.03;;
21675;SDS011;10999;51.332;9.458;2023-08-17T08:21:50;11.50;;;6.13;;
21675;SDS011;10999;51.332;9.458;2023-08-17T08:24:17;13.18;;;7.10;;
21675;SDS011;10999;51.332;9.458;2023-08-17T08:27:02;14.00;;;6.35;;
21675;SDS011;10999;51.332;9.458;2023-08-17T08:29:29;12.35;;;6.57;;
21675;SDS011;10999;51.332;9.458;2023-08-17T08:31:56;11.82;;;6.20;;
21675;SDS011;10999;51.332;9.458;2023-08-17T08:34:25;12.55;;;5.82;;
21675;SDS011;10999;51.332;9.458;2023-08-17T08:36:52;12.38;;;6.07;;
21675;SDS011;10999;51.332;9.458;2023-08-17T08:39:19;10.10;;;5.13;;
21675;SDS011;10999;51.332;9.458;2023-08-17T08:41:46;10.52;;;4.75;;
21675;SDS011;10999;51.332;9.458;2023-08-17T08:44:12;8.65;;;4.32;;
21675;SDS011;10999;51.332;9.458;2023-08-17T08:46:40;10.70;;;5.43;;
21675;SDS011;10999;51.332;9.458;2023-08-17T08:49:10;9.05;;;4.20;;
21675;SDS011;10999;51.332;9.458;2023-08-17T08:51:38;12.90;;;5.55;;
21675;SDS011;10999;51.332;9.458;2023-08-17T08:54:13;12.15;;;4.85;;
21675;SDS011;10999;51.332;9.458;2023-08-17T08:56:43;11.02;;;5.57;;
21675;SDS011;10999;51.332;9.458;2023-08-17T08:59:13;12.45;;;5.57;;
21675;SDS011;10999;51.332;9.458;2023-08-17T09:01:41;10.52;;;5.18;;
21675;SDS011;10999;51.332;9.458;2023-08-17T09:04:08;9.80;;;4.97;;
21675;SDS011;10999;51.332;9.458;2023-08-17T09:06:35;9.45;;;4.88;;
21675;SDS011;10999;51.332;9.458;2023-08-17T09:09:03;9.52;;;4.45;;
21675;SDS011;10999;51.332;9.458;2023-08-17T09:11:32;7.90;;;3.75;;
21675;SDS011;10999;51.332;9.458;2023-08-17T09:13:58;9.07;;;4.05;;
21675;SDS011;10999;51.332;9.458;2023-08-17T09:16:27;8.02;;;3.92;;
21675;SDS011;10999;51.332;9.458;2023-08-17T09:18:54;8.68;;;4.47;;
21675;SDS011;10999;51.332;9.458;2023-08-17T09:21:21;7.78;;;3.42;;
21675;SDS011;10999;51.332;9.458;2023-08-17T09:23:52;8.85;;;4.78;;
21675;SDS011;10999;51.332;9.458;2023-08-17T09:26:24;8.52;;;4.32;;
21675;SDS011;10999;51.332;9.458;2023-08-17T09:28:51;8.82;;;4.15;;
21675;SDS011;10999;51.332;9.458;2023-08-17T09:31:20;9.68;;;4.00;;
21675;SDS011;10999;51.332;9.458;2023-08-17T09:33:49;8.35;;;3.55;;
21675;SDS011;10999;51.332;9.458;2023-08-17T09:36:23;8.38;;;4.07;;
21675;SDS011;10999;51.332;9.458;2023-08-17T09:38:52;9.90;;;4.10;;
21675;SDS011;10999;51.332;9.458;2023-08-17T09:41:19;7.13;;;3.53;;
21675;SDS011;10999;51.332;9.458;2023-08-17T09:43:46;9.13;;;4.00;;
21675;SDS011;10999;51.332;9.458;2023-08-17T09:46:13;8.40;;;4.20;;
21675;SDS011;10999;51.332;9.458;2023-08-17T09:48:43;8.35;;;4.30;;
21675;SDS011;10999;51.332;9.458;2023-08-17T09:51:10;8.30;;;3.95;;
21675;SDS011;10999;51.332;9.458;2023-08-17T09:53:42;10.50;;;4.70;;
21675;SDS011;10999;51.332;9.458;2023-08-17T09:56:09;9.00;;;4.35;;
21675;SDS011;10999;51.332;9.458;2023-08-17T09:58:43;9.45;;;3.83;;
21675;SDS011;10999;51.332;9.458;2023-08-17T10:01:10;7.18;;;3.67;;
21675;SDS011;10999;51.332;9.458;2023-08-17T10:03:39;7.32;;;3.83;;
21675;SDS011;10999;51.332;9.458;2023-08-17T10:06:12;6.57;;;3.13;;
21675;SDS011;10999;51.332;9.458;2023-08-17T10:08:43;6.03;;;2.88;;
21675;SDS011;10999;51.332;9.458;2023-08-17T10:11:14;6.85;;;3.55;;
21675;SDS011;10999;51.332;9.458;2023-08-17T10:13:49;5.95;;;2.80;;
21675;SDS011;10999;51.332;9.458;2023-08-17T10:16:22;7.35;;;3.60;;
21675;SDS011;10999;51.332;9.458;2023-08-17T10:19:01;6.90;;;3.55;;
21675;SDS011;10999;51.332;9.458;2023-08-17T10:22:23;8.05;;;4.43;;
21675;SDS011;10999;51.332;9.458;2023-08-17T10:24:45;8.13;;;3.72;;
21675;SDS011;10999;51.332;9.458;2023-08-17T10:27:12;6.25;;;3.10;;
21675;SDS011;10999;51.332;9.458;2023-08-17T10:29:40;9.75;;;3.50;;
21675;SDS011;10999;51.332;9.458;2023-08-17T10:32:09;6.60;;;3.25;;
21675;SDS011;10999;51.332;9.458;2023-08-17T10:34:42;6.80;;;3.13;;
21675;SDS011;10999;51.332;9.458;2023-08-17T10:37:09;7.13;;;3.30;;
21675;SDS011;10999;51.332;9.458;2023-08-17T10:39:40;7.63;;;3.15;;
21675;SDS011;10999;51.332;9.458;2023-08-17T10:42:11;6.13;;;3.00;;
21675;SDS011;10999;51.332;9.458;2023-08-17T10:44:45;6.95;;;3.05;;
21675;SDS011;10999;51.332;9.458;2023-08-17T10:47:26;5.88;;;2.85;;
21675;SDS011;10999;51.332;9.458;2023-08-17T10:50:05;6.22;;;3.15;;
21675;SDS011;10999;51.332;9.458;2023-08-17T10:52:48;5.82;;;2.50;;
21675;SDS011;10999;51.332;9.458;2023-08-17T10:55:16;5.90;;;2.70;;
21675;SDS011;10999;51.332;9.458;2023-08-17T10:57:45;7.03;;;2.83;;
21675;SDS011;10999;51.332;9.458;2023-08-17T11:00:18;5.47;;;2.58;;
21675;SDS011;10999;51.332;9.458;2023-08-17T11:03:07;6.80;;;2.88;;
21675;SDS011;10999;51.332;9.458;2023-08-17T11:05:37;6.15;;;2.92;;
21675;SDS011;10999;51.332;9.458;2023-08-17T11:08:10;6.38;;;2.30;;
21675;SDS011;10999;51.332;9.458;2023-08-17T11:10:47;5.97;;;2.50;;
21675;SDS011;10999;51.332;9.458;2023-08-17T11:13:23;5.95;;;2.33;;
21675;SDS011;10999;51.332;9.458;2023-08-17T11:15:50;5.40;;;2.10;;
21675;SDS011;10999;51.332;9.458;2023-08-17T11:18:16;6.78;;;2.85;;
21675;SDS011;10999;51.332;9.458;2023-08-17T11:20:43;5.03;;;2.67;;
21675;SDS011;10999;51.332;9.458;2023-08-17T11:23:10;4.53;;;2.25;;
21675;SDS011;10999;51.332;9.458;2023-08-17T11:25:37;3.85;;;2.03;;
21675;SDS011;10999;51.332;9.458;2023-08-17T11:28:06;4.57;;;1.95;;
21675;SDS011;10999;51.332;9.458;2023-08-17T11:30:34;5.13;;;2.20;;
21675;SDS011;10999;51.332;9.458;2023-08-17T11:33:05;3.65;;;2.00;;
21675;SDS011;10999;51.332;9.458;2023-08-17T11:35:32;5.97;;;2.25;;
21675;SDS011;10999;51.332;9.458;2023-08-17T11:37:59;4.05;;;2.00;;
21675;SDS011;10999;51.332;9.458;2023-08-17T11:40:26;5.00;;;2.33;;
21675;SDS011;10999;51.332;9.458;2023-08-17T11:42:53;3.95;;;1.90;;
21675;SDS011;10999;51.332;9.458;2023-08-17T11:45:20;4.60;;;2.10;;
21675;SDS011;10999;51.332;9.458;2023-08-17T11:47:53;4.03;;;1.85;;
21675;SDS011;10999;51.332;9.458;2023-08-17T11:50:20;4.85;;;2.10;;
21675;SDS011;10999;51.332;9.458;2023-08-17T11:52:47;4.57;;;2.45;;
21675;SDS011;10999;51.332;9.458;2023-08-17T11:55:15;5.55;;;2.13;;
21675;SDS011;10999;51.332;9.458;2023-08-17T11:57:44;4.07;;;2.03;;
21675;SDS011;10999;51.332;9.458;2023-08-17T12:00:16;4.68;;;1.65;;
21675;SDS011;10999;51.332;9.458;2023-08-17T12:02:48;5.45;;;1.88;;
21675;SDS011;10999;51.332;9.458;2023-08-17T12:05:23;4.32;;;2.40;;
21675;SDS011;10999;51.332;9.458;2023-08-17T12:07:53;4.68;;;1.85;;
21675;SDS011;10999;51.332;9.458;2023-08-17T12:10:20;4.32;;;2.05;;
21675;SDS011;10999;51.332;9.458;2023-08-17T12:12:49;4.43;;;2.00;;
21675;SDS011;10999;51.332;9.458;2023-08-17T12:15:16;4.03;;;1.77;;
21675;SDS011;10999;51.332;9.458;2023-08-17T12:17:44;5.28;;;2.05;;
21675;SDS011;10999;51.332;9.458;2023-08-17T12:20:16;4.40;;;2.00;;
21675;SDS011;10999;51.332;9.458;2023-08-17T12:22:43;4.03;;;1.75;;
21675;SDS011;10999;51.332;9.458;2023-08-17T12:25:10;3.90;;;1.70;;
21675;SDS011;10999;51.332;9.458;2023-08-17T12:27:37;5.72;;;1.90;;
21675;SDS011;10999;51.332;9.458;2023-08-17T12:30:11;3.42;;;1.60;;
21675;SDS011;10999;51.332;9.458;2023-08-17T12:32:40;4.80;;;2.20;;
21675;SDS011;10999;51.332;9.458;2023-08-17T12:35:07;5.68;;;2.17;;
21675;SDS011;10999;51.332;9.458;2023-08-17T12:37:34;4.10;;;1.92;;
21675;SDS011;10999;51.332;9.458;2023-08-17T12:40:00;5.53;;;1.95;;
21675;SDS011;10999;51.332;9.458;2023-08-17T12:42:27;4.53;;;1.88;;
21675;SDS011;10999;51.332;9.458;2023-08-17T12:44:55;5.03;;;2.10;;
21675;SDS011;10999;51.332;9.458;2023-08-17T12:47:21;3.42;;;1.73;;
21675;SDS011;10999;51.332;9.458;2023-08-17T12:49:48;5.60;;;2.00;;
21675;SDS011;10999;51.332;9.458;2023-08-17T12:52:15;5.10;;;2.30;;
21675;SDS011;10999;51.332;9.458;2023-08-17T12:54:41;2.92;;;1.60;;
21675;SDS011;10999;51.332;9.458;2023-08-17T12:57:08;3.42;;;1.88;;
21675;SDS011;10999;51.332;9.458;2023-08-17T12:59:38;4.05;;;1.95;;
21675;SDS011;10999;51.332;9.458;2023-08-17T13:02:05;4.68;;;2.22;;
21675;SDS011;10999;51.332;9.458;2023-08-17T13:04:32;3.63;;;1.90;;
21675;SDS011;10999;51.332;9.458;2023-08-17T13:06:59;4.93;;;1.90;;
21675;SDS011;10999;51.332;9.458;2023-08-17T13:09:25;5.05;;;1.60;;
21675;SDS011;10999;51.332;9.458;2023-08-17T13:11:52;4.13;;;2.10;;
21675;SDS011;10999;51.332;9.458;2023-08-17T13:14:19;3.90;;;1.98;;
21675;SDS011;10999;51.332;9.458;2023-08-17T13:16:46;5.40;;;2.13;;
21675;SDS011;10999;51.332;9.458;2023-08-17T13:19:12;4.63;;;1.98;;
21675;SDS011;10999;51.332;9.458;2023-08-17T13:21:39;4.78;;;1.80;;
21675;SDS011;10999;51.332;9.458;2023-08-17T13:24:06;4.00;;;1.67;;
21675;SDS011;10999;51.332;9.458;2023-08-17T13:26:33;4.13;;;1.90;;
21675;SDS011;10999;51.332;9.458;2023-08-17T13:29:00;5.07;;;2.10;;
21675;SDS011;10999;51.332;9.458;2023-08-17T13:31:27;4.85;;;2.13;;
21675;SDS011;10999;51.332;9.458;2023-08-17T13:33:54;3.15;;;1.80;;
21675;SDS011;10999;51.332;9.458;2023-08-17T13:36:21;4.60;;;2.00;;
21675;SDS011;10999;51.332;9.458;2023-08-17T13:38:47;3.70;;;1.88;;
21675;SDS011;10999;51.332;9.458;2023-08-17T13:41:14;3.42;;;1.85;;
21675;SDS011;10999;51.332;9.458;2023-08-17T13:43:41;4.40;;;2.00;;
21675;SDS011;10999;51.332;9.458;2023-08-17T13:46:08;4.95;;;2.28;;
21675;SDS011;10999;51.332;9.458;2023-08-17T13:48:35;4.00;;;1.70;;
21675;SDS011;10999;51.332;9.458;2023-08-17T13:51:01;3.80;;;2.00;;
21675;SDS011;10999;51.332;9.458;2023-08-17T13:53:28;4.03;;;1.90;;
21675;SDS011;10999;51.332;9.458;2023-08-17T13:55:55;3.60;;;1.92;;
21675;SDS011;10999;51.332;9.458;2023-08-17T13:58:22;4.68;;;1.90;;
21675;SDS011;10999;51.332;9.458;2023-08-17T14:00:48;3.47;;;1.92;;
21675;SDS011;10999;51.332;9.458;2023-08-17T14:03:15;3.85;;;1.70;;
21675;SDS011;10999;51.332;9.458;2023-08-17T14:05:42;3.85;;;1.80;;
21675;SDS011;10999;51.332;9.458;2023-08-17T14:08:10;3.85;;;2.10;;
21675;SDS011;10999;51.332;9.458;2023-08-17T14:10:37;4.53;;;2.00;;
21675;SDS011;10999;51.332;9.458;2023-08-17T14:13:05;4.45;;;1.70;;
21675;SDS011;10999;51.332;9.458;2023-08-17T14:15:32;3.95;;;1.70;;
21675;SDS011;10999;51.332;9.458;2023-08-17T14:17:59;4.40;;;1.83;;
21675;SDS011;10999;51.332;9.458;2023-08-17T14:20:26;3.28;;;1.60;;
21675;SDS011;10999;51.332;9.458;2023-08-17T14:22:53;3.67;;;2.00;;
21675;SDS011;10999;51.332;9.458;2023-08-17T14:25:20;4.38;;;1.77;;
21675;SDS011;10999;51.332;9.458;2023-08-17T14:27:47;4.07;;;1.80;;
21675;SDS011;10999;51.332;9.458;2023-08-17T14:30:14;4.45;;;2.20;;
21675;SDS011;10999;51.332;9.458;2023-08-17T14:32:41;3.22;;;1.70;;
21675;SDS011;10999;51.332;9.458;2023-08-17T14:35:07;5.75;;;1.70;;
21675;SDS011;10999;51.332;9.458;2023-08-17T14:37:37;6.45;;;2.00;;
21675;SDS011;10999;51.332;9.458;2023-08-17T14:40:04;4.93;;;1.80;;
21675;SDS011;10999;51.332;9.458;2023-08-17T14:42:31;3.80;;;1.75;;
21675;SDS011;10999;51.332;9.458;2023-08-17T14:44:58;3.35;;;1.67;;
21675;SDS011;10999;51.332;9.458;2023-08-17T14:47:32;3.47;;;1.77;;
21675;SDS011;10999;51.332;9.458;2023-08-17T14:49:59;3.55;;;1.40;;
21675;SDS011;10999;51.332;9.458;2023-08-17T14:52:26;4.70;;;2.05;;
21675;SDS011;10999;51.332;9.458;2023-08-17T14:54:59;3.35;;;1.85;;
21675;SDS011;10999;51.332;9.458;2023-08-17T14:57:25;3.17;;;1.70;;